sensor_id;sensor_type;location;lat;lon;timestamp;P1;durP1;ratioP1;P2;durP2;ratioP2
27113;SDS011;14648;49.730;8.614;2022-09-27T00:00:40;1.50;;;1.40;;
27113;SDS011;14648;49.730;8.614;2022-09-27T00:03:07;1.30;;;1.20;;
27113;SDS011;14648;49.730;8.614;2022-09-27T00:05:37;1.90;;;1.57;;
27113;SDS011;14648;49.730;8.614;2022-09-27T00:08:05;1.37;;;1.27;;
27113;SDS011;14648;49.730;8.614;2022-09-27T00:10:30;2.10;;;1.50;;
27113;SDS011;14648;49.730;8.614;2022-09-27T00:12:57;4.00;;;1.43;;
27113;SDS011;14648;49.730;8.614;2022-09-27T00:15:23;2.23;;;1.20;;
27113;SDS011;14648;49.730;8.614;2022-09-27T00:17:49;3.43;;;1.73;;
27113;SDS011;14648;49.730;8.614;2022-09-27T00:20:16;2.63;;;1.50;;
27113;SDS011;14648;49.730;8.614;2022-09-27T00:22:44;1.30;;;1.20;;
27113;SDS011;14648;49.730;8.614;2022-09-27T00:25:12;2.10;;;2.00;;
27113;SDS011;14648;49.730;8.614;2022-09-27T00:27:38;1.60;;;1.50;;
27113;SDS011;14648;49.730;8.614;2022-09-27T00:30:04;2.80;;;1.80;;
27113;SDS011;14648;49.730;8.614;2022-09-27T00:32:30;5.23;;;1.40;;
27113;SDS011;14648;49.730;8.614;2022-09-27T00:34:56;1.80;;;1.30;;
27113;SDS011;14648;49.730;8.614;2022-09-27T00:37:21;1.40;;;1.20;;
27113;SDS011;14648;49.730;8.614;2022-09-27T00:39:47;2.90;;;1.77;;
27113;SDS011;14648;49.730;8.614;2022-09-27T00:42:13;1.70;;;1.60;;
27113;SDS011;14648;49.730;8.614;2022-09-27T00:54:58;2.50;;;2.30;;
27113;SDS011;14648;49.730;8.614;2022-09-27T00:57:30;2.40;;;2.20;;
27113;SDS011;14648;49.730;8.614;2022-09-27T01:00:01;2.97;;;2.70;;
27113;SDS011;14648;49.730;8.614;2022-09-27T01:02:32;2.40;;;2.23;;
27113;SDS011;14648;49.730;8.614;2022-09-27T01:05:00;2.80;;;2.20;;
27113;SDS011;14648;49.730;8.614;2022-09-27T01:07:28;2.20;;;2.10;;
27113;SDS011;14648;49.730;8.614;2022-09-27T01:09:53;2.60;;;2.20;;
27113;SDS011;14648;49.730;8.614;2022-09-27T01:12:22;2.10;;;2.00;;
27113;SDS011;14648;49.730;8.614;2022-09-27T01:21:09;4.30;;;2.10;;
27113;SDS011;14648;49.730;8.614;2022-09-27T01:29:14;2.27;;;2.17;;
27113;SDS011;14648;49.730;8.614;2022-09-27T01:32:26;3.67;;;1.57;;
27113;SDS011;14648;49.730;8.614;2022-09-27T01:38:29;1.43;;;1.27;;
27113;SDS011;14648;49.730;8.614;2022-09-27T01:41:35;1.93;;;1.63;;
27113;SDS011;14648;49.730;8.614;2022-09-27T01:44:19;2.23;;;1.60;;
27113;SDS011;14648;49.730;8.614;2022-09-27T01:47:15;3.73;;;2.53;;
27113;SDS011;14648;49.730;8.614;2022-09-27T01:52:32;2.40;;;2.20;;
27113;SDS011;14648;49.730;8.614;2022-09-27T01:55:05;1.50;;;1.40;;
27113;SDS011;14648;49.730;8.614;2022-09-27T01:57:36;2.03;;;1.83;;
27113;SDS011;14648;49.730;8.614;2022-09-27T02:00:06;2.47;;;2.27;;
27113;SDS011;14648;49.730;8.614;2022-09-27T02:02:39;1.60;;;1.50;;
27113;SDS011;14648;49.730;8.614;2022-09-27T02:05:18;2.63;;;1.93;;
27113;SDS011;14648;49.730;8.614;2022-09-27T02:07:54;2.33;;;1.80;;
27113;SDS011;14648;49.730;8.614;2022-09-27T02:10:34;6.70;;;1.70;;
27113;SDS011;14648;49.730;8.614;2022-09-27T02:19:09;1.80;;;1.70;;
27113;SDS011;14648;49.730;8.614;2022-09-27T02:24:21;2.43;;;1.97;;
27113;SDS011;14648;49.730;8.614;2022-09-27T02:27:00;2.27;;;2.10;;
27113;SDS011;14648;49.730;8.614;2022-09-27T02:29:38;3.03;;;2.00;;
27113;SDS011;14648;49.730;8.614;2022-09-27T02:32:17;7.47;;;2.50;;
27113;SDS011;14648;49.730;8.614;2022-09-27T02:34:43;3.57;;;2.20;;
27113;SDS011;14648;49.730;8.614;2022-09-27T02:37:10;1.70;;;1.60;;
27113;SDS011;14648;49.730;8.614;2022-09-27T02:39:36;3.07;;;1.97;;
27113;SDS011;14648;49.730;8.614;2022-09-27T02:42:02;5.13;;;2.13;;
27113;SDS011;14648;49.730;8.614;2022-09-27T02:44:29;3.53;;;1.30;;
27113;SDS011;14648;49.730;8.614;2022-09-27T03:01:56;2.40;;;1.30;;
27113;SDS011;14648;49.730;8.614;2022-09-27T03:04:55;2.80;;;1.90;;
27113;SDS011;14648;49.730;8.614;2022-09-27T03:07:30;1.93;;;1.63;;
27113;SDS011;14648;49.730;8.614;2022-09-27T03:09:56;2.73;;;1.77;;
27113;SDS011;14648;49.730;8.614;2022-09-27T03:12:22;5.87;;;1.30;;
27113;SDS011;14648;49.730;8.614;2022-09-27T03:14:53;2.60;;;2.07;;
27113;SDS011;14648;49.730;8.614;2022-09-27T03:17:22;6.97;;;2.00;;
27113;SDS011;14648;49.730;8.614;2022-09-27T03:19:48;4.20;;;1.87;;
27113;SDS011;14648;49.730;8.614;2022-09-27T03:22:14;2.00;;;1.50;;
27113;SDS011;14648;49.730;8.614;2022-09-27T03:24:40;1.53;;;1.43;;
27113;SDS011;14648;49.730;8.614;2022-09-27T03:27:08;1.73;;;1.63;;
27113;SDS011;14648;49.730;8.614;2022-09-27T03:29:34;2.60;;;1.50;;
27113;SDS011;14648;49.730;8.614;2022-09-27T03:32:00;8.00;;;1.63;;
27113;SDS011;14648;49.730;8.614;2022-09-27T03:34:27;1.87;;;1.17;;
27113;SDS011;14648;49.730;8.614;2022-09-27T03:36:53;4.30;;;1.10;;
27113;SDS011;14648;49.730;8.614;2022-09-27T03:39:19;2.47;;;1.27;;
27113;SDS011;14648;49.730;8.614;2022-09-27T03:41:45;2.03;;;1.17;;
27113;SDS011;14648;49.730;8.614;2022-09-27T03:44:11;1.00;;;1.00;;
27113;SDS011;14648;49.730;8.614;2022-09-27T03:46:37;4.10;;;1.13;;
27113;SDS011;14648;49.730;8.614;2022-09-27T03:49:02;1.00;;;0.90;;
27113;SDS011;14648;49.730;8.614;2022-09-27T03:51:28;5.37;;;1.20;;
27113;SDS011;14648;49.730;8.614;2022-09-27T03:53:54;1.17;;;0.90;;
27113;SDS011;14648;49.730;8.614;2022-09-27T03:56:20;3.30;;;0.90;;
27113;SDS011;14648;49.730;8.614;2022-09-27T03:58:46;1.20;;;1.20;;
27113;SDS011;14648;49.730;8.614;2022-09-27T04:01:13;2.00;;;0.80;;
27113;SDS011;14648;49.730;8.614;2022-09-27T04:03:38;2.20;;;0.90;;
27113;SDS011;14648;49.730;8.614;2022-09-27T04:06:04;1.17;;;0.90;;
27113;SDS011;14648;49.730;8.614;2022-09-27T04:08:32;1.67;;;0.77;;
27113;SDS011;14648;49.730;8.614;2022-09-27T04:10:58;1.37;;;0.90;;
27113;SDS011;14648;49.730;8.614;2022-09-27T04:13:24;1.80;;;1.10;;
27113;SDS011;14648;49.730;8.614;2022-09-27T04:15:50;0.83;;;0.83;;
27113;SDS011;14648;49.730;8.614;2022-09-27T04:18:17;1.77;;;0.90;;
27113;SDS011;14648;49.730;8.614;2022-09-27T04:20:42;0.80;;;0.73;;
27113;SDS011;14648;49.730;8.614;2022-09-27T04:23:08;4.00;;;0.90;;
27113;SDS011;14648;49.730;8.614;2022-09-27T04:25:34;0.83;;;0.83;;
27113;SDS011;14648;49.730;8.614;2022-09-27T04:28:00;1.10;;;0.70;;
27113;SDS011;14648;49.730;8.614;2022-09-27T04:30:27;2.40;;;0.80;;
27113;SDS011;14648;49.730;8.614;2022-09-27T04:32:53;1.03;;;0.60;;
27113;SDS011;14648;49.730;8.614;2022-09-27T04:35:19;5.73;;;1.07;;
27113;SDS011;14648;49.730;8.614;2022-09-27T04:38:04;1.13;;;0.90;;
27113;SDS011;14648;49.730;8.614;2022-09-27T04:40:32;1.10;;;1.00;;
27113;SDS011;14648;49.730;8.614;2022-09-27T04:42:59;2.47;;;1.00;;
27113;SDS011;14648;49.730;8.614;2022-09-27T04:45:25;1.00;;;1.00;;
27113;SDS011;14648;49.730;8.614;2022-09-27T04:47:51;1.40;;;0.80;;
27113;SDS011;14648;49.730;8.614;2022-09-27T04:50:17;2.30;;;1.00;;
27113;SDS011;14648;49.730;8.614;2022-09-27T04:52:48;0.80;;;0.67;;
27113;SDS011;14648;49.730;8.614;2022-09-27T04:55:18;3.47;;;0.80;;
27113;SDS011;14648;49.730;8.614;2022-09-27T04:57:46;2.50;;;0.70;;
27113;SDS011;14648;49.730;8.614;2022-09-27T05:00:13;1.00;;;0.90;;
27113;SDS011;14648;49.730;8.614;2022-09-27T05:02:41;0.70;;;0.70;;
27113;SDS011;14648;49.730;8.614;2022-09-27T05:05:08;0.80;;;0.60;;
27113;SDS011;14648;49.730;8.614;2022-09-27T05:07:34;1.00;;;0.70;;
27113;SDS011;14648;49.730;8.614;2022-09-27T05:10:02;0.60;;;0.60;;
27113;SDS011;14648;49.730;8.614;2022-09-27T05:12:29;0.87;;;0.60;;
27113;SDS011;14648;49.730;8.614;2022-09-27T05:14:55;1.00;;;0.70;;
27113;SDS011;14648;49.730;8.614;2022-09-27T05:17:21;0.83;;;0.70;;
27113;SDS011;14648;49.730;8.614;2022-09-27T05:19:47;0.60;;;0.50;;
27113;SDS011;14648;49.730;8.614;2022-09-27T05:22:14;0.70;;;0.63;;
27113;SDS011;14648;49.730;8.614;2022-09-27T05:24:40;0.70;;;0.70;;
27113;SDS011;14648;49.730;8.614;2022-09-27T05:27:07;1.37;;;0.60;;
27113;SDS011;14648;49.730;8.614;2022-09-27T05:29:37;0.80;;;0.80;;
27113;SDS011;14648;49.730;8.614;2022-09-27T05:32:03;0.67;;;0.67;;
27113;SDS011;14648;49.730;8.614;2022-09-27T05:34:28;2.23;;;0.60;;
27113;SDS011;14648;49.730;8.614;2022-09-27T05:36:56;2.80;;;0.90;;
27113;SDS011;14648;49.730;8.614;2022-09-27T05:39:23;4.50;;;0.67;;
27113;SDS011;14648;49.730;8.614;2022-09-27T05:41:48;1.13;;;0.83;;
27113;SDS011;14648;49.730;8.614;2022-09-27T05:44:14;4.43;;;0.70;;
27113;SDS011;14648;49.730;8.614;2022-09-27T05:46:41;0.70;;;0.60;;
27113;SDS011;14648;49.730;8.614;2022-09-27T05:49:07;0.77;;;0.77;;
27113;SDS011;14648;49.730;8.614;2022-09-27T05:51:33;2.30;;;0.70;;
27113;SDS011;14648;49.730;8.614;2022-09-27T05:53:59;0.90;;;0.80;;
27113;SDS011;14648;49.730;8.614;2022-09-27T05:56:24;3.80;;;0.83;;
27113;SDS011;14648;49.730;8.614;2022-09-27T05:58:50;1.30;;;0.73;;
27113;SDS011;14648;49.730;8.614;2022-09-27T06:01:16;0.80;;;0.80;;
27113;SDS011;14648;49.730;8.614;2022-09-27T06:03:43;0.90;;;0.90;;
27113;SDS011;14648;49.730;8.614;2022-09-27T06:06:10;3.13;;;1.23;;
27113;SDS011;14648;49.730;8.614;2022-09-27T06:08:36;1.47;;;1.10;;
27113;SDS011;14648;49.730;8.614;2022-09-27T06:11:03;1.60;;;1.10;;
27113;SDS011;14648;49.730;8.614;2022-09-27T06:13:36;0.90;;;0.90;;
27113;SDS011;14648;49.730;8.614;2022-09-27T06:16:04;0.83;;;0.80;;
27113;SDS011;14648;49.730;8.614;2022-09-27T06:18:31;0.93;;;0.70;;
27113;SDS011;14648;49.730;8.614;2022-09-27T06:20:58;1.00;;;0.80;;
27113;SDS011;14648;49.730;8.614;2022-09-27T06:23:24;1.37;;;0.83;;
27113;SDS011;14648;49.730;8.614;2022-09-27T06:25:51;1.43;;;0.73;;
27113;SDS011;14648;49.730;8.614;2022-09-27T06:28:20;2.93;;;0.90;;
27113;SDS011;14648;49.730;8.614;2022-09-27T06:30:47;4.87;;;0.70;;
27113;SDS011;14648;49.730;8.614;2022-09-27T06:33:15;0.93;;;0.93;;
27113;SDS011;14648;49.730;8.614;2022-09-27T06:35:43;5.67;;;0.90;;
27113;SDS011;14648;49.730;8.614;2022-09-27T06:38:14;0.60;;;0.60;;
27113;SDS011;14648;49.730;8.614;2022-09-27T06:40:42;2.17;;;0.80;;
27113;SDS011;14648;49.730;8.614;2022-09-27T06:43:13;0.73;;;0.70;;
27113;SDS011;14648;49.730;8.614;2022-09-27T06:45:42;7.73;;;0.80;;
27113;SDS011;14648;49.730;8.614;2022-09-27T06:48:09;1.90;;;0.60;;
27113;SDS011;14648;49.730;8.614;2022-09-27T06:50:37;0.80;;;0.70;;
27113;SDS011;14648;49.730;8.614;2022-09-27T06:53:06;0.60;;;0.60;;
27113;SDS011;14648;49.730;8.614;2022-09-27T06:55:35;1.10;;;1.00;;
27113;SDS011;14648;49.730;8.614;2022-09-27T06:58:01;2.20;;;0.70;;
27113;SDS011;14648;49.730;8.614;2022-09-27T07:00:52;0.80;;;0.80;;
27113;SDS011;14648;49.730;8.614;2022-09-27T07:03:18;1.13;;;0.70;;
27113;SDS011;14648;49.730;8.614;2022-09-27T07:05:59;1.53;;;1.40;;
27113;SDS011;14648;49.730;8.614;2022-09-27T07:08:27;1.10;;;0.80;;
27113;SDS011;14648;49.730;8.614;2022-09-27T07:11:04;1.37;;;1.07;;
27113;SDS011;14648;49.730;8.614;2022-09-27T07:13:31;3.00;;;1.17;;
27113;SDS011;14648;49.730;8.614;2022-09-27T07:16:01;0.87;;;0.70;;
27113;SDS011;14648;49.730;8.614;2022-09-27T07:18:30;1.33;;;0.67;;
27113;SDS011;14648;49.730;8.614;2022-09-27T07:20:58;0.77;;;0.77;;
27113;SDS011;14648;49.730;8.614;2022-09-27T07:23:24;5.70;;;0.67;;
27113;SDS011;14648;49.730;8.614;2022-09-27T07:25:50;5.13;;;0.80;;
27113;SDS011;14648;49.730;8.614;2022-09-27T07:28:17;0.70;;;0.70;;
27113;SDS011;14648;49.730;8.614;2022-09-27T07:30:45;0.60;;;0.60;;
27113;SDS011;14648;49.730;8.614;2022-09-27T07:33:11;1.17;;;0.77;;
27113;SDS011;14648;49.730;8.614;2022-09-27T07:35:38;0.80;;;0.60;;
27113;SDS011;14648;49.730;8.614;2022-09-27T07:38:05;0.80;;;0.70;;
27113;SDS011;14648;49.730;8.614;2022-09-27T07:40:35;0.60;;;0.50;;
27113;SDS011;14648;49.730;8.614;2022-09-27T07:43:01;0.60;;;0.60;;
27113;SDS011;14648;49.730;8.614;2022-09-27T07:45:30;0.70;;;0.67;;
27113;SDS011;14648;49.730;8.614;2022-09-27T07:47:56;1.90;;;0.60;;
27113;SDS011;14648;49.730;8.614;2022-09-27T07:50:23;0.60;;;0.60;;
27113;SDS011;14648;49.730;8.614;2022-09-27T07:52:50;0.80;;;0.80;;
27113;SDS011;14648;49.730;8.614;2022-09-27T07:55:17;0.60;;;0.60;;
27113;SDS011;14648;49.730;8.614;2022-09-27T07:57:43;1.77;;;0.80;;
27113;SDS011;14648;49.730;8.614;2022-09-27T08:00:11;2.00;;;0.60;;
27113;SDS011;14648;49.730;8.614;2022-09-27T08:02:44;0.70;;;0.70;;
27113;SDS011;14648;49.730;8.614;2022-09-27T08:05:10;0.80;;;0.80;;
27113;SDS011;14648;49.730;8.614;2022-09-27T08:07:37;0.97;;;0.77;;
27113;SDS011;14648;49.730;8.614;2022-09-27T08:10:06;0.80;;;0.60;;
27113;SDS011;14648;49.730;8.614;2022-09-27T08:12:33;1.47;;;0.70;;
27113;SDS011;14648;49.730;8.614;2022-09-27T08:15:00;1.90;;;0.70;;
27113;SDS011;14648;49.730;8.614;2022-09-27T08:17:28;1.10;;;0.80;;
27113;SDS011;14648;49.730;8.614;2022-09-27T08:19:55;1.10;;;0.80;;
27113;SDS011;14648;49.730;8.614;2022-09-27T08:22:21;1.27;;;0.90;;
27113;SDS011;14648;49.730;8.614;2022-09-27T08:24:48;3.93;;;1.13;;
27113;SDS011;14648;49.730;8.614;2022-09-27T08:27:19;7.13;;;2.10;;
27113;SDS011;14648;49.730;8.614;2022-09-27T08:29:45;28.53;;;6.87;;
27113;SDS011;14648;49.730;8.614;2022-09-27T08:32:12;7.53;;;2.70;;
27113;SDS011;14648;49.730;8.614;2022-09-27T08:34:38;2.67;;;2.23;;
27113;SDS011;14648;49.730;8.614;2022-09-27T08:37:04;4.23;;;1.10;;
27113;SDS011;14648;49.730;8.614;2022-09-27T08:39:30;1.30;;;0.70;;
27113;SDS011;14648;49.730;8.614;2022-09-27T08:47:40;0.63;;;0.63;;
27113;SDS011;14648;49.730;8.614;2022-09-27T08:53:13;0.87;;;0.50;;
27113;SDS011;14648;49.730;8.614;2022-09-27T08:55:56;0.60;;;0.60;;
27113;SDS011;14648;49.730;8.614;2022-09-27T08:58:27;0.60;;;0.60;;
27113;SDS011;14648;49.730;8.614;2022-09-27T09:01:14;0.70;;;0.63;;
27113;SDS011;14648;49.730;8.614;2022-09-27T09:03:47;6.80;;;0.70;;
27113;SDS011;14648;49.730;8.614;2022-09-27T09:06:26;1.07;;;0.60;;
27113;SDS011;14648;49.730;8.614;2022-09-27T09:12:11;1.13;;;0.50;;
27113;SDS011;14648;49.730;8.614;2022-09-27T09:18:58;1.27;;;0.70;;
27113;SDS011;14648;49.730;8.614;2022-09-27T09:21:55;1.07;;;0.60;;
27113;SDS011;14648;49.730;8.614;2022-09-27T09:27:43;3.57;;;1.10;;
27113;SDS011;14648;49.730;8.614;2022-09-27T09:30:29;2.50;;;0.60;;
27113;SDS011;14648;49.730;8.614;2022-09-27T09:33:20;6.37;;;1.17;;
27113;SDS011;14648;49.730;8.614;2022-09-27T09:35:52;0.60;;;0.60;;
27113;SDS011;14648;49.730;8.614;2022-09-27T09:38:47;1.67;;;0.70;;
27113;SDS011;14648;49.730;8.614;2022-09-27T09:41:24;0.90;;;0.70;;
27113;SDS011;14648;49.730;8.614;2022-09-27T09:46:48;5.33;;;0.80;;
27113;SDS011;14648;49.730;8.614;2022-09-27T09:52:00;0.80;;;0.70;;
27113;SDS011;14648;49.730;8.614;2022-09-27T09:54:36;2.77;;;0.63;;
27113;SDS011;14648;49.730;8.614;2022-09-27T09:57:13;0.70;;;0.60;;
27113;SDS011;14648;49.730;8.614;2022-09-27T10:02:27;1.53;;;0.70;;
27113;SDS011;14648;49.730;8.614;2022-09-27T10:04:54;1.20;;;0.70;;
27113;SDS011;14648;49.730;8.614;2022-09-27T10:07:21;1.33;;;0.60;;
27113;SDS011;14648;49.730;8.614;2022-09-27T10:09:48;0.83;;;0.50;;
27113;SDS011;14648;49.730;8.614;2022-09-27T10:12:16;0.60;;;0.60;;
27113;SDS011;14648;49.730;8.614;2022-09-27T10:14:43;1.87;;;0.60;;
27113;SDS011;14648;49.730;8.614;2022-09-27T10:17:14;0.80;;;0.60;;
27113;SDS011;14648;49.730;8.614;2022-09-27T10:19:44;1.27;;;0.73;;
27113;SDS011;14648;49.730;8.614;2022-09-27T10:22:55;1.20;;;0.70;;
27113;SDS011;14648;49.730;8.614;2022-09-27T10:25:10;0.50;;;0.50;;
27113;SDS011;14648;49.730;8.614;2022-09-27T10:27:40;1.10;;;0.53;;
27113;SDS011;14648;49.730;8.614;2022-09-27T10:30:20;1.73;;;0.60;;
27113;SDS011;14648;49.730;8.614;2022-09-27T10:32:55;3.30;;;0.77;;
27113;SDS011;14648;49.730;8.614;2022-09-27T10:37:53;0.70;;;0.50;;
27113;SDS011;14648;49.730;8.614;2022-09-27T10:40:46;1.27;;;0.70;;
27113;SDS011;14648;49.730;8.614;2022-09-27T10:52:02;1.13;;;1.00;;
27113;SDS011;14648;49.730;8.614;2022-09-27T10:54:35;1.00;;;1.00;;
27113;SDS011;14648;49.730;8.614;2022-09-27T10:57:05;1.53;;;1.40;;
27113;SDS011;14648;49.730;8.614;2022-09-27T11:00:02;1.37;;;0.80;;
27113;SDS011;14648;49.730;8.614;2022-09-27T11:02:35;1.37;;;1.03;;
27113;SDS011;14648;49.730;8.614;2022-09-27T11:07:54;1.30;;;1.20;;
27113;SDS011;14648;49.730;8.614;2022-09-27T11:10:33;0.80;;;0.70;;
27113;SDS011;14648;49.730;8.614;2022-09-27T11:13:33;1.00;;;0.80;;
27113;SDS011;14648;49.730;8.614;2022-09-27T11:18:35;0.80;;;0.80;;
27113;SDS011;14648;49.730;8.614;2022-09-27T11:24:10;3.00;;;0.90;;
27113;SDS011;14648;49.730;8.614;2022-09-27T11:30:01;1.30;;;0.80;;
27113;SDS011;14648;49.730;8.614;2022-09-27T11:32:48;0.77;;;0.77;;
27113;SDS011;14648;49.730;8.614;2022-09-27T11:41:13;2.50;;;1.00;;
27113;SDS011;14648;49.730;8.614;2022-09-27T11:44:24;1.87;;;1.00;;
27113;SDS011;14648;49.730;8.614;2022-09-27T11:47:14;2.07;;;1.30;;
27113;SDS011;14648;49.730;8.614;2022-09-27T11:56:36;3.20;;;1.77;;
27113;SDS011;14648;49.730;8.614;2022-09-27T12:05:08;4.13;;;1.20;;
27113;SDS011;14648;49.730;8.614;2022-09-27T12:10:48;1.83;;;1.03;;
27113;SDS011;14648;49.730;8.614;2022-09-27T12:13:25;7.80;;;2.60;;
27113;SDS011;14648;49.730;8.614;2022-09-27T12:16:03;1.63;;;0.70;;
27113;SDS011;14648;49.730;8.614;2022-09-27T12:18:34;1.10;;;0.87;;
27113;SDS011;14648;49.730;8.614;2022-09-27T12:21:05;1.73;;;0.93;;
27113;SDS011;14648;49.730;8.614;2022-09-27T12:23:38;2.50;;;0.80;;
27113;SDS011;14648;49.730;8.614;2022-09-27T12:26:16;1.63;;;0.70;;
27113;SDS011;14648;49.730;8.614;2022-09-27T12:28:57;2.57;;;0.70;;
27113;SDS011;14648;49.730;8.614;2022-09-27T12:31:33;1.13;;;0.80;;
27113;SDS011;14648;49.730;8.614;2022-09-27T12:34:23;3.37;;;0.90;;
27113;SDS011;14648;49.730;8.614;2022-09-27T12:40:12;1.33;;;0.70;;
27113;SDS011;14648;49.730;8.614;2022-09-27T12:42:49;0.70;;;0.70;;
27113;SDS011;14648;49.730;8.614;2022-09-27T12:48:16;2.17;;;0.90;;
27113;SDS011;14648;49.730;8.614;2022-09-27T12:51:01;1.23;;;1.10;;
27113;SDS011;14648;49.730;8.614;2022-09-27T12:59:34;1.00;;;0.70;;
27113;SDS011;14648;49.730;8.614;2022-09-27T13:06:05;1.00;;;0.90;;
27113;SDS011;14648;49.730;8.614;2022-09-27T13:09:17;1.77;;;1.20;;
27113;SDS011;14648;49.730;8.614;2022-09-27T13:31:01;1.57;;;0.80;;
27113;SDS011;14648;49.730;8.614;2022-09-27T13:33:44;0.60;;;0.60;;
27113;SDS011;14648;49.730;8.614;2022-09-27T13:47:28;1.53;;;0.80;;
27113;SDS011;14648;49.730;8.614;2022-09-27T13:52:44;1.13;;;0.80;;
27113;SDS011;14648;49.730;8.614;2022-09-27T13:58:14;3.70;;;1.30;;
27113;SDS011;14648;49.730;8.614;2022-09-27T14:01:15;0.90;;;0.90;;
27113;SDS011;14648;49.730;8.614;2022-09-27T14:03:50;1.30;;;1.00;;
27113;SDS011;14648;49.730;8.614;2022-09-27T14:06:27;2.40;;;1.10;;
27113;SDS011;14648;49.730;8.614;2022-09-27T14:08:57;1.33;;;0.70;;
27113;SDS011;14648;49.730;8.614;2022-09-27T14:11:42;0.97;;;0.87;;
27113;SDS011;14648;49.730;8.614;2022-09-27T14:14:16;1.00;;;0.80;;
27113;SDS011;14648;49.730;8.614;2022-09-27T14:16:50;0.70;;;0.70;;
27113;SDS011;14648;49.730;8.614;2022-09-27T14:19:20;1.10;;;0.90;;
27113;SDS011;14648;49.730;8.614;2022-09-27T14:21:50;1.67;;;1.00;;
27113;SDS011;14648;49.730;8.614;2022-09-27T14:24:27;3.00;;;1.30;;
27113;SDS011;14648;49.730;8.614;2022-09-27T14:27:29;1.70;;;1.07;;
27113;SDS011;14648;49.730;8.614;2022-09-27T14:30:00;3.33;;;1.20;;
27113;SDS011;14648;49.730;8.614;2022-09-27T14:32:46;1.20;;;1.10;;
27113;SDS011;14648;49.730;8.614;2022-09-27T14:35:24;0.93;;;0.93;;
27113;SDS011;14648;49.730;8.614;2022-09-27T14:38:20;1.80;;;1.23;;
27113;SDS011;14648;49.730;8.614;2022-09-27T14:43:23;1.10;;;1.00;;
27113;SDS011;14648;49.730;8.614;2022-09-27T14:45:50;1.57;;;0.90;;
27113;SDS011;14648;49.730;8.614;2022-09-27T14:48:29;2.67;;;1.00;;
27113;SDS011;14648;49.730;8.614;2022-09-27T14:53:30;3.83;;;0.90;;
27113;SDS011;14648;49.730;8.614;2022-09-27T14:56:00;2.70;;;1.20;;
27113;SDS011;14648;49.730;8.614;2022-09-27T14:58:27;3.13;;;1.27;;
27113;SDS011;14648;49.730;8.614;2022-09-27T15:00:54;3.03;;;1.10;;
27113;SDS011;14648;49.730;8.614;2022-09-27T15:03:27;2.00;;;1.10;;
27113;SDS011;14648;49.730;8.614;2022-09-27T15:05:56;1.10;;;1.00;;
27113;SDS011;14648;49.730;8.614;2022-09-27T15:08:29;1.43;;;0.90;;
27113;SDS011;14648;49.730;8.614;2022-09-27T15:10:58;4.20;;;1.47;;
27113;SDS011;14648;49.730;8.614;2022-09-27T15:13:25;1.60;;;1.30;;
27113;SDS011;14648;49.730;8.614;2022-09-27T15:15:53;1.00;;;0.90;;
27113;SDS011;14648;49.730;8.614;2022-09-27T15:21:07;1.17;;;1.00;;
27113;SDS011;14648;49.730;8.614;2022-09-27T15:23:40;1.13;;;1.03;;
27113;SDS011;14648;49.730;8.614;2022-09-27T15:28:42;2.80;;;1.00;;
27113;SDS011;14648;49.730;8.614;2022-09-27T15:31:10;0.80;;;0.80;;
27113;SDS011;14648;49.730;8.614;2022-09-27T15:33:37;2.13;;;1.23;;
27113;SDS011;14648;49.730;8.614;2022-09-27T15:36:04;2.53;;;0.93;;
27113;SDS011;14648;49.730;8.614;2022-09-27T15:38:39;1.37;;;0.70;;
27113;SDS011;14648;49.730;8.614;2022-09-27T15:43:45;1.70;;;1.33;;
27113;SDS011;14648;49.730;8.614;2022-09-27T15:51:45;0.90;;;0.77;;
27113;SDS011;14648;49.730;8.614;2022-09-27T15:54:12;2.50;;;1.47;;
27113;SDS011;14648;49.730;8.614;2022-09-27T15:56:38;1.40;;;1.30;;
27113;SDS011;14648;49.730;8.614;2022-09-27T15:59:05;0.93;;;0.87;;
27113;SDS011;14648;49.730;8.614;2022-09-27T16:01:40;0.90;;;0.80;;
27113;SDS011;14648;49.730;8.614;2022-09-27T16:04:07;0.70;;;0.60;;
27113;SDS011;14648;49.730;8.614;2022-09-27T16:06:33;1.03;;;0.80;;
27113;SDS011;14648;49.730;8.614;2022-09-27T16:08:59;1.87;;;0.70;;
27113;SDS011;14648;49.730;8.614;2022-09-27T16:11:24;1.10;;;1.00;;
27113;SDS011;14648;49.730;8.614;2022-09-27T16:13:50;0.97;;;0.97;;
27113;SDS011;14648;49.730;8.614;2022-09-27T16:16:17;1.57;;;0.80;;
27113;SDS011;14648;49.730;8.614;2022-09-27T16:18:46;1.13;;;1.03;;
27113;SDS011;14648;49.730;8.614;2022-09-27T16:21:13;3.80;;;1.20;;
27113;SDS011;14648;49.730;8.614;2022-09-27T16:23:39;1.50;;;1.40;;
27113;SDS011;14648;49.730;8.614;2022-09-27T16:26:06;1.23;;;0.90;;
27113;SDS011;14648;49.730;8.614;2022-09-27T16:28:32;2.37;;;1.00;;
27113;SDS011;14648;49.730;8.614;2022-09-27T16:31:02;2.83;;;2.27;;
27113;SDS011;14648;49.730;8.614;2022-09-27T16:33:30;1.47;;;1.00;;
27113;SDS011;14648;49.730;8.614;2022-09-27T16:36:03;2.90;;;1.40;;
27113;SDS011;14648;49.730;8.614;2022-09-27T16:38:40;2.20;;;0.90;;
27113;SDS011;14648;49.730;8.614;2022-09-27T16:41:06;1.40;;;0.90;;
27113;SDS011;14648;49.730;8.614;2022-09-27T16:43:32;1.23;;;0.80;;
27113;SDS011;14648;49.730;8.614;2022-09-27T16:46:07;3.37;;;0.80;;
27113;SDS011;14648;49.730;8.614;2022-09-27T16:48:36;0.80;;;0.80;;
27113;SDS011;14648;49.730;8.614;2022-09-27T16:51:23;1.27;;;0.80;;
27113;SDS011;14648;49.730;8.614;2022-09-27T16:54:06;0.90;;;0.70;;
27113;SDS011;14648;49.730;8.614;2022-09-27T16:56:33;0.93;;;0.80;;
27113;SDS011;14648;49.730;8.614;2022-09-27T16:59:00;2.37;;;0.90;;
27113;SDS011;14648;49.730;8.614;2022-09-27T17:01:29;1.10;;;1.00;;
27113;SDS011;14648;49.730;8.614;2022-09-27T17:03:56;1.57;;;1.00;;
27113;SDS011;14648;49.730;8.614;2022-09-27T17:06:22;1.47;;;0.80;;
27113;SDS011;14648;49.730;8.614;2022-09-27T17:08:48;2.40;;;1.10;;
27113;SDS011;14648;49.730;8.614;2022-09-27T17:11:14;1.23;;;1.00;;
27113;SDS011;14648;49.730;8.614;2022-09-27T17:13:43;1.23;;;1.10;;
27113;SDS011;14648;49.730;8.614;2022-09-27T17:16:10;5.60;;;1.10;;
27113;SDS011;14648;49.730;8.614;2022-09-27T17:18:37;2.37;;;1.27;;
27113;SDS011;14648;49.730;8.614;2022-09-27T17:21:04;1.65;;;1.13;;
27113;SDS011;14648;49.730;8.614;2022-09-27T17:23:33;2.20;;;1.33;;
27113;SDS011;14648;49.730;8.614;2022-09-27T17:26:07;5.00;;;1.70;;
27113;SDS011;14648;49.730;8.614;2022-09-27T17:28:44;1.60;;;1.20;;
27113;SDS011;14648;49.730;8.614;2022-09-27T17:31:11;4.00;;;1.60;;
27113;SDS011;14648;49.730;8.614;2022-09-27T17:33:40;3.43;;;1.30;;
27113;SDS011;14648;49.730;8.614;2022-09-27T17:36:13;3.40;;;1.90;;
27113;SDS011;14648;49.730;8.614;2022-09-27T17:38:44;1.93;;;1.60;;
27113;SDS011;14648;49.730;8.614;2022-09-27T17:41:12;6.10;;;1.13;;
27113;SDS011;14648;49.730;8.614;2022-09-27T17:43:40;4.40;;;1.50;;
27113;SDS011;14648;49.730;8.614;2022-09-27T17:46:14;2.73;;;1.30;;
27113;SDS011;14648;49.730;8.614;2022-09-27T17:48:45;3.70;;;1.40;;
27113;SDS011;14648;49.730;8.614;2022-09-27T17:51:51;1.87;;;1.50;;
27113;SDS011;14648;49.730;8.614;2022-09-27T17:54:18;3.90;;;1.37;;
27113;SDS011;14648;49.730;8.614;2022-09-27T17:56:47;1.93;;;1.30;;
27113;SDS011;14648;49.730;8.614;2022-09-27T17:59:14;3.10;;;1.10;;
27113;SDS011;14648;49.730;8.614;2022-09-27T18:01:42;2.50;;;1.30;;
27113;SDS011;14648;49.730;8.614;2022-09-27T18:04:11;10.00;;;1.50;;
27113;SDS011;14648;49.730;8.614;2022-09-27T18:06:40;3.03;;;1.10;;
27113;SDS011;14648;49.730;8.614;2022-09-27T18:09:11;1.40;;;1.30;;
27113;SDS011;14648;49.730;8.614;2022-09-27T18:11:39;1.13;;;0.90;;
27113;SDS011;14648;49.730;8.614;2022-09-27T18:14:05;2.23;;;1.50;;
27113;SDS011;14648;49.730;8.614;2022-09-27T18:16:33;1.50;;;1.40;;
27113;SDS011;14648;49.730;8.614;2022-09-27T18:19:04;1.33;;;1.23;;
27113;SDS011;14648;49.730;8.614;2022-09-27T18:21:32;6.67;;;1.73;;
27113;SDS011;14648;49.730;8.614;2022-09-27T18:23:59;6.20;;;1.57;;
27113;SDS011;14648;49.730;8.614;2022-09-27T18:26:29;1.63;;;0.90;;